Terminal Aerodrome Forecast
Issued by NWS Charleston, WV

Current Version | Previous Version | Graphics & Text | Print | Product List | Glossary On
Versions: 1 2 3 4 5 6 7 8 9 10 11 12 13 14 15 16 17 18 19 20 21 22 23
737
FTUS41 KRLX 122320
TAFPKB
TAF
KPKB 122320Z 1300/1324 27010G15KT P6SM OVC045
     FM130200 29011G24KT 1SM -SHSN BR BKN008 OVC015
     FM130400 30012G19KT P6SM BKN035
     FM132300 30009KT P6SM SCT045=

USA.gov is the U.S. government's official web portal to all federal, state and local government web resources and services.